Richmond, Virginia
Current Conditions -  °F | °C
As of 12:54 AM on Saturday 20 Dec 2014 (Local Time) from KRIC Reporting Station
Few Clouds Few Clouds  
Wind Chill: 26°   Ceiling: Unl
Heat Index: 32°   Visibility: 10mi
Dew Point: 21°   Wind: 6mph
Humidity: 64%   Direction: 30°NNE
Pressure: 30.25"   Gusts: NA
Location:  37.54°N, 77.43°W
Report Text: KRIC 200554Z 03005KT 10SM FEW300 00/M06 A3025 RMK AO2 SLP248 T00001061 10028 21006 50001
Loading
Personal Weather Stations






























Interactive Weather Map New forecast layout! Learn more

10-Day Weather Forecast

Advertisements
Track Severe Weather on mobile